Time;durP1;ratioP1;P1;durP2;ratioP2;P2;SDS_P1;SDS_P2;PMS_P1;PMS_P2;Temp;Humidity;BMP_temperature;BMP_pressure;BME280_temperature;BME280_humidity;BME280_pressure;Samples;Min_cycle;Max_cycle;Signal;HPM_P1;HPM_P2
2021/08/05 00:00:13;;;;;;;25.77;21.90;;;19.60;99.90;;;;;;4997263;28;20192;-89
2021/08/05 00:02:38;;;;;;;25.60;20.97;;;19.60;99.90;;;;;;4993548;28;20185;-89
2021/08/05 00:05:04;;;;;;;25.40;22.63;;;19.60;99.90;;;;;;4997620;28;20202;-89
2021/08/05 00:07:30;;;;;;;26.90;23.13;;;19.60;99.90;;;;;;5000501;28;20187;-87
2021/08/05 00:09:55;;;;;;;26.63;23.17;;;19.50;99.90;;;;;;4998978;28;20273;-87
2021/08/05 00:12:21;;;;;;;26.43;22.60;;;19.50;99.90;;;;;;4997847;28;20264;-87
2021/08/05 00:14:46;;;;;;;26.47;22.93;;;19.50;99.90;;;;;;5001049;28;20179;-87
2021/08/05 00:17:13;;;;;;;26.67;22.60;;;19.40;99.90;;;;;;4997833;28;20179;-88
2021/08/05 00:19:38;;;;;;;25.97;23.13;;;19.50;99.90;;;;;;4999720;28;20188;-88
2021/08/05 00:22:04;;;;;;;28.30;23.17;;;19.40;99.90;;;;;;4996010;28;20206;-86
2021/08/05 00:24:30;;;;;;;27.47;24.07;;;19.40;99.90;;;;;;4994830;28;20243;-89
2021/08/05 00:26:56;;;;;;;30.00;25.27;;;19.40;99.90;;;;;;5011961;28;20199;-88
2021/08/05 00:29:22;;;;;;;29.57;25.00;;;19.40;99.90;;;;;;5000328;28;20310;-89
2021/08/05 00:31:48;;;;;;;29.57;24.50;;;19.40;99.90;;;;;;4997570;28;20195;-89
2021/08/05 00:34:15;;;;;;;38.77;24.90;;;19.50;99.90;;;;;;4996357;28;20190;-88
2021/08/05 00:36:40;;;;;;;29.87;24.90;;;19.50;99.90;;;;;;5007228;28;20675;-89
2021/08/05 00:39:07;;;;;;;30.57;25.50;;;19.50;99.90;;;;;;5018405;28;20176;-87
2021/08/05 00:41:33;;;;;;;30.07;25.73;;;19.50;99.90;;;;;;5011862;28;20259;-87
2021/08/05 00:44:00;;;;;;;31.73;26.27;;;19.50;99.90;;;;;;4997224;28;20333;-88
2021/08/05 00:46:26;;;;;;;28.30;25.03;;;19.50;99.90;;;;;;4993698;28;20555;-88
2021/08/05 00:48:51;;;;;;;31.80;25.60;;;19.40;99.90;;;;;;5001772;28;20208;-88
2021/08/05 00:51:17;;;;;;;32.10;27.40;;;19.40;99.90;;;;;;4998966;28;20192;-87
2021/08/05 00:53:44;;;;;;;31.50;26.50;;;19.40;99.90;;;;;;4990543;28;20275;-88
2021/08/05 00:56:10;;;;;;;32.47;27.70;;;19.50;99.90;;;;;;4992384;28;20184;-90
2021/08/05 00:58:36;;;;;;;35.60;29.03;;;19.50;99.90;;;;;;4994537;28;20261;-87
2021/08/05 01:01:11;;;;;;;36.23;30.03;;;19.40;99.90;;;;;;5000211;28;20605;-88
2021/08/05 01:03:42;;;;;;;38.70;30.47;;;19.40;99.90;;;;;;4996462;28;20197;-87
2021/08/05 01:06:30;;;;;;;35.17;29.47;;;19.30;99.90;;;;;;5002146;28;20184;-88
2021/08/05 01:09:26;;;;;;;36.83;29.73;;;19.30;99.90;;;;;;4994954;28;20223;-87
2021/08/05 01:12:18;;;;;;;34.17;29.13;;;19.40;99.90;;;;;;4963646;28;20762;-88
2021/08/05 01:14:52;;;;;;;36.60;29.30;;;19.30;99.90;;;;;;5009556;28;20206;-89
2021/08/05 01:17:20;;;;;;;37.23;30.37;;;19.30;99.90;;;;;;4992814;28;20188;-88
2021/08/05 01:19:56;;;;;;;41.37;31.80;;;19.40;99.90;;;;;;5003618;28;20184;-89
2021/08/05 01:22:54;;;;;;;39.80;30.00;;;19.30;99.90;;;;;;4995248;28;20191;-87
2021/08/05 01:25:56;;;;;;;37.20;31.13;;;19.40;99.90;;;;;;4998250;28;20571;-88
2021/08/05 01:28:22;;;;;;;38.73;29.23;;;19.50;99.90;;;;;;4948662;28;20188;-87
2021/08/05 01:30:51;;;;;;;37.93;31.83;;;19.40;99.90;;;;;;5001548;28;20199;-87
2021/08/05 01:33:19;;;;;;;44.03;34.13;;;19.50;99.90;;;;;;4993517;28;20188;-88
2021/08/05 01:35:48;;;;;;;45.73;34.27;;;19.50;99.90;;;;;;4995227;28;20200;-88
2021/08/05 01:38:15;;;;;;;46.17;35.57;;;19.40;99.90;;;;;;4994322;28;20527;-88
2021/08/05 01:40:41;;;;;;;47.90;37.07;;;19.40;99.90;;;;;;5011803;28;20189;-88
2021/08/05 01:43:09;;;;;;;48.27;37.67;;;19.70;99.90;;;;;;4999202;28;20187;-88
2021/08/05 01:45:38;;;;;;;48.23;36.97;;;19.60;99.90;;;;;;4999709;28;20550;-88
2021/08/05 01:48:05;;;;;;;51.27;37.67;;;19.40;99.90;;;;;;5006223;28;20193;-88
2021/08/05 01:50:31;;;;;;;47.23;36.27;;;19.60;99.90;;;;;;5003489;28;20226;-87
2021/08/05 01:52:57;;;;;;;49.43;37.47;;;19.60;99.90;;;;;;4999320;28;20183;-90
2021/08/05 01:55:24;;;;;;;46.63;35.47;;;19.40;99.90;;;;;;4996371;28;20185;-89
2021/08/05 01:57:50;;;;;;;39.83;31.70;;;19.40;99.90;;;;;;4999045;28;20194;-88
2021/08/05 02:00:15;;;;;;;38.17;30.97;;;19.30;99.90;;;;;;5002696;28;20558;-87
2021/08/05 02:02:41;;;;;;;38.17;30.33;;;19.20;99.90;;;;;;5000700;28;20195;-88
2021/08/05 02:05:15;;;;;;;38.83;30.53;;;19.10;99.90;;;;;;4994692;28;20660;-88
2021/08/05 02:08:02;;;;;;;37.77;29.87;;;19.10;99.90;;;;;;5005783;28;20199;-88
2021/08/05 02:10:33;;;;;;;37.43;29.93;;;19.00;99.90;;;;;;5000822;28;20277;-87
2021/08/05 02:13:09;;;;;;;37.13;29.90;;;19.10;99.90;;;;;;4998955;28;20184;-88
2021/08/05 02:15:36;;;;;;;41.63;31.67;;;19.20;99.90;;;;;;4995550;28;20198;-88
2021/08/05 02:18:04;;;;;;;53.70;34.17;;;19.30;99.90;;;;;;5000727;28;20189;-88
2021/08/05 02:20:31;;;;;;;42.63;32.03;;;19.40;99.90;;;;;;5000095;28;20292;-87
2021/08/05 02:22:58;;;;;;;42.93;33.03;;;19.40;99.90;;;;;;5001970;28;20184;-87
2021/08/05 02:25:24;;;;;;;37.40;29.93;;;19.40;99.90;;;;;;5002156;28;20572;-88
2021/08/05 02:27:50;;;;;;;38.73;29.63;;;19.40;99.90;;;;;;4998108;28;20192;-88
2021/08/05 02:30:17;;;;;;;40.17;32.43;;;19.30;99.90;;;;;;5004618;28;20230;-88
2021/08/05 02:32:44;;;;;;;39.60;29.77;;;19.20;99.90;;;;;;4998950;28;20183;-88
2021/08/05 02:35:11;;;;;;;42.17;33.13;;;19.20;99.90;;;;;;5004793;28;20201;-88
2021/08/05 02:37:38;;;;;;;41.17;33.23;;;19.10;99.90;;;;;;5001649;28;20267;-87
2021/08/05 02:40:05;;;;;;;39.40;32.30;;;19.20;99.90;;;;;;5003698;28;20198;-88
2021/08/05 02:42:31;;;;;;;38.60;31.20;;;19.20;99.90;;;;;;4997856;28;20243;-88
2021/08/05 02:44:58;;;;;;;39.10;31.73;;;19.20;99.90;;;;;;5000794;28;20724;-88
2021/08/05 02:47:25;;;;;;;41.33;31.57;;;19.10;99.90;;;;;;4997159;28;20192;-88
2021/08/05 02:49:53;;;;;;;41.83;32.27;;;19.10;99.90;;;;;;4992533;28;20597;-88
2021/08/05 02:52:19;;;;;;;42.83;32.17;;;19.10;99.90;;;;;;4991064;28;20182;-88
2021/08/05 02:54:46;;;;;;;46.30;33.30;;;19.10;99.90;;;;;;5002922;28;20704;-88
2021/08/05 02:57:13;;;;;;;42.40;33.30;;;19.00;99.90;;;;;;4996537;28;20271;-88
2021/08/05 02:59:39;;;;;;;44.67;34.73;;;19.10;99.90;;;;;;4992271;28;20219;-88
2021/08/05 03:02:05;;;;;;;44.87;34.57;;;18.90;99.90;;;;;;4993022;28;20204;-88
2021/08/05 03:04:32;;;;;;;44.80;33.70;;;19.00;99.90;;;;;;4994855;28;20547;-87
2021/08/05 03:06:59;;;;;;;47.43;34.97;;;19.10;99.90;;;;;;4995573;28;20192;-87
2021/08/05 03:09:25;;;;;;;48.53;36.10;;;19.10;99.90;;;;;;4999875;28;20219;-88
2021/08/05 03:11:50;;;;;;;46.20;35.00;;;19.10;99.90;;;;;;5005422;28;21874;-88
2021/08/05 03:14:16;;;;;;;47.80;35.67;;;19.10;99.90;;;;;;5008713;28;20196;-89
2021/08/05 03:16:42;;;;;;;49.30;35.40;;;19.00;99.90;;;;;;5003647;28;20204;-88
2021/08/05 03:19:07;;;;;;;46.37;36.23;;;19.00;99.90;;;;;;5005438;28;20274;-88
2021/08/05 03:21:33;;;;;;;46.27;34.00;;;19.00;99.90;;;;;;5004441;28;20200;-87
2021/08/05 03:23:59;;;;;;;44.93;35.40;;;19.00;99.90;;;;;;5003426;28;20620;-87
2021/08/05 03:26:24;;;;;;;47.30;36.27;;;19.20;99.90;;;;;;5004000;28;20715;-88
2021/08/05 03:28:50;;;;;;;50.03;37.23;;;19.40;99.90;;;;;;5006227;28;20215;-88
2021/08/05 03:31:16;;;;;;;48.00;35.77;;;19.50;99.90;;;;;;5003498;28;20539;-88
2021/08/05 03:33:41;;;;;;;45.40;34.77;;;19.30;99.90;;;;;;5000786;28;20691;-87
2021/08/05 03:36:07;;;;;;;47.67;37.50;;;19.20;99.90;;;;;;5004055;28;20275;-88
2021/08/05 03:38:33;;;;;;;49.63;36.80;;;19.10;99.90;;;;;;5010296;28;20671;-89
2021/08/05 03:41:01;;;;;;;49.83;37.93;;;19.00;99.90;;;;;;5004120;28;20188;-87
2021/08/05 03:43:27;;;;;;;51.90;36.57;;;18.90;99.90;;;;;;4997677;28;20555;-87
2021/08/05 03:45:53;;;;;;;52.37;38.93;;;18.90;99.90;;;;;;4997583;28;20279;-87
2021/08/05 03:48:18;;;;;;;50.87;37.77;;;18.90;99.90;;;;;;4998834;28;20268;-88
2021/08/05 03:50:44;;;;;;;47.90;36.37;;;19.00;99.90;;;;;;5000972;28;20184;-88
2021/08/05 03:53:10;;;;;;;47.00;35.53;;;19.00;99.90;;;;;;4993311;28;20180;-88
2021/08/05 03:55:35;;;;;;;52.67;36.30;;;19.00;99.90;;;;;;5003122;28;20528;-88
2021/08/05 03:58:02;;;;;;;50.33;37.37;;;19.20;99.90;;;;;;4997493;28;20283;-87
2021/08/05 04:00:28;;;;;;;49.40;37.67;;;19.10;99.90;;;;;;5000302;28;20187;-87
2021/08/05 04:02:54;;;;;;;52.20;38.57;;;19.10;99.90;;;;;;4999963;28;20195;-88
2021/08/05 04:05:20;;;;;;;50.13;37.03;;;19.00;99.90;;;;;;4988555;28;20219;-88
2021/08/05 04:07:45;;;;;;;48.40;37.53;;;18.90;99.90;;;;;;4999037;28;20194;-88
2021/08/05 04:10:11;;;;;;;51.20;37.43;;;18.90;99.90;;;;;;4997874;28;20578;-88
2021/08/05 04:12:37;;;;;;;51.80;37.43;;;19.00;99.90;;;;;;5002512;28;20248;-88
2021/08/05 04:15:03;;;;;;;54.40;38.13;;;18.90;99.90;;;;;;4998887;28;20304;-88
2021/08/05 04:17:29;;;;;;;52.50;39.13;;;18.90;99.90;;;;;;5003771;28;20232;-87
2021/08/05 04:19:55;;;;;;;47.00;35.57;;;19.00;99.90;;;;;;4998081;28;20184;-88
2021/08/05 04:22:20;;;;;;;49.23;36.47;;;19.00;99.90;;;;;;4996475;28;20188;-85
2021/08/05 04:24:46;;;;;;;46.73;35.63;;;19.00;99.90;;;;;;4999729;28;20531;-87
2021/08/05 04:27:11;;;;;;;48.97;37.00;;;19.00;99.90;;;;;;4995941;28;20211;-88
2021/08/05 04:29:37;;;;;;;51.90;36.93;;;18.90;99.90;;;;;;4988762;28;20323;-89
2021/08/05 04:32:03;;;;;;;44.63;34.33;;;18.90;99.90;;;;;;5001672;28;20230;-89
2021/08/05 04:34:29;;;;;;;49.20;36.63;;;18.90;99.90;;;;;;4996823;28;20185;-88
2021/08/05 04:36:55;;;;;;;48.47;37.00;;;18.90;99.90;;;;;;5002957;28;20251;-88
2021/08/05 04:39:21;;;;;;;44.77;35.67;;;18.80;99.90;;;;;;4997507;28;20196;-88
2021/08/05 04:41:46;;;;;;;50.47;35.87;;;18.80;99.90;;;;;;4997673;28;20185;-89
2021/08/05 04:44:12;;;;;;;46.73;36.53;;;18.90;99.90;;;;;;4998290;28;20286;-88
2021/08/05 04:46:39;;;;;;;49.83;37.47;;;18.80;99.90;;;;;;5008944;28;20174;-88
2021/08/05 04:49:04;;;;;;;51.87;38.27;;;18.90;99.90;;;;;;5008348;28;20581;-86
2021/08/05 04:51:34;;;;;;;49.40;36.53;;;19.00;99.90;;;;;;5002921;28;20283;-87
2021/08/05 04:54:02;;;;;;;53.37;37.60;;;18.90;99.90;;;;;;4997689;28;20238;-87
2021/08/05 04:56:30;;;;;;;48.83;36.87;;;18.90;99.90;;;;;;4990662;28;20637;-88
2021/08/05 04:58:55;;;;;;;50.63;37.77;;;18.80;99.90;;;;;;4992855;28;20556;-87
2021/08/05 05:01:21;;;;;;;52.73;39.17;;;18.80;99.90;;;;;;5000710;28;20190;-86
2021/08/05 05:03:49;;;;;;;47.63;35.40;;;18.70;99.90;;;;;;4997430;28;20195;-87
2021/08/05 05:06:14;;;;;;;46.90;36.97;;;18.80;99.90;;;;;;4999416;28;20227;-87
2021/08/05 05:08:40;;;;;;;50.83;36.17;;;18.80;99.90;;;;;;4991873;28;20218;-88
2021/08/05 05:11:06;;;;;;;46.87;35.73;;;18.80;99.90;;;;;;4989901;28;20272;-88
2021/08/05 05:13:31;;;;;;;50.43;37.17;;;18.80;99.90;;;;;;4993461;28;20183;-87
2021/08/05 05:15:57;;;;;;;49.00;36.60;;;18.80;99.90;;;;;;4986123;28;20218;-87
2021/08/05 05:18:24;;;;;;;51.67;37.70;;;18.80;99.90;;;;;;4997112;28;20188;-88
2021/08/05 05:20:51;;;;;;;57.80;39.60;;;18.80;99.90;;;;;;4990044;28;20194;-88
2021/08/05 05:23:17;;;;;;;53.43;38.87;;;18.70;99.90;;;;;;4998015;28;20635;-89
2021/08/05 05:25:43;;;;;;;51.67;38.73;;;18.60;99.90;;;;;;4994046;28;20266;-87
2021/08/05 05:28:10;;;;;;;50.70;36.97;;;18.60;99.90;;;;;;4994589;28;20190;-87
2021/08/05 05:30:37;;;;;;;51.90;37.20;;;18.60;99.90;;;;;;4996060;28;20301;-88
2021/08/05 05:33:04;;;;;;;53.70;38.73;;;18.60;99.90;;;;;;4994858;28;20560;-87
2021/08/05 07:09:39;;;;;;;54.40;38.40;;;21.10;99.90;;;;;;5549065;23;20249;-87
2021/08/05 07:12:05;;;;;;;48.23;38.20;;;21.00;99.90;;;;;;4984868;28;20185;-83
2021/08/05 07:14:30;;;;;;;55.50;42.20;;;20.80;99.90;;;;;;4984402;28;20274;-83
2021/08/05 07:16:56;;;;;;;58.13;42.80;;;20.70;99.90;;;;;;4985049;28;20283;-85
2021/08/05 07:19:22;;;;;;;55.47;41.17;;;20.50;99.90;;;;;;4997297;28;20180;-86
2021/08/05 07:21:47;;;;;;;53.43;40.70;;;20.50;99.90;;;;;;4989691;28;20192;-83
2021/08/05 07:24:13;;;;;;;55.20;39.73;;;20.40;99.90;;;;;;5009587;28;20204;-84
2021/08/05 07:26:42;;;;;;;54.60;40.07;;;20.50;99.90;;;;;;4987922;28;20230;-84
2021/08/05 07:29:08;;;;;;;53.90;41.23;;;20.70;99.90;;;;;;5009908;28;20240;-84
2021/08/05 07:31:34;;;;;;;54.43;41.33;;;20.90;99.90;;;;;;5004561;28;20191;-83
2021/08/05 07:34:00;;;;;;;57.43;42.30;;;20.70;99.90;;;;;;4996819;28;20184;-84
2021/08/05 07:36:26;;;;;;;57.77;41.93;;;20.80;99.90;;;;;;5000441;28;20191;-85
2021/08/05 07:38:52;;;;;;;56.90;41.57;;;21.00;99.90;;;;;;5007147;28;20204;-83
2021/08/05 07:41:18;;;;;;;52.73;41.60;;;21.20;99.90;;;;;;5000354;28;20226;-83
2021/08/05 07:43:44;;;;;;;54.60;41.87;;;21.40;99.90;;;;;;5006035;28;20179;-85
2021/08/05 07:46:10;;;;;;;64.30;43.73;;;21.50;99.90;;;;;;5010346;28;20556;-83
2021/08/05 07:48:35;;;;;;;55.53;43.53;;;21.40;99.90;;;;;;5008441;28;20184;-85
2021/08/05 07:51:01;;;;;;;55.87;42.10;;;21.30;99.90;;;;;;5004330;28;20643;-84
2021/08/05 07:53:27;;;;;;;61.13;44.67;;;21.40;99.90;;;;;;5010946;28;20186;-82
2021/08/05 10:14:22;;;;;;;19.40;13.50;;;24.90;99.90;;;;;;6100720;23;20584;31
2021/08/05 13:58:44;;;;;;;4.80;2.43;;;30.40;73.80;;;;;;5825596;23;20237;-79
2021/08/05 14:01:10;;;;;;;5.30;2.20;;;30.90;74.40;;;;;;4990473;28;20482;-79
2021/08/05 14:03:36;;;;;;;2.37;2.03;;;32.00;72.20;;;;;;4990978;28;20201;-80
2021/08/05 14:06:02;;;;;;;4.25;2.55;;;33.10;69.90;;;;;;4999509;28;20662;-79
2021/08/05 14:08:27;;;;;;;4.20;1.75;;;34.40;68.10;;;;;;4992033;28;20186;-79
2021/08/05 14:10:53;;;;;;;3.10;2.05;;;35.00;65.40;;;;;;4999276;28;20217;-77
2021/08/05 14:13:18;;;;;;;2.05;1.85;;;34.60;65.10;;;;;;4992320;28;20174;-81
2021/08/05 14:15:45;;;;;;;3.58;2.20;;;34.30;64.80;;;;;;4997893;28;20196;-79
2021/08/05 14:18:11;;;;;;;2.80;2.17;;;33.40;65.50;;;;;;5002995;28;20638;-81
2021/08/05 14:20:41;;;;;;;4.87;2.30;;;32.60;66.80;;;;;;4992559;28;20197;-79
2021/08/05 14:23:06;;;;;;;2.03;1.90;;;31.70;67.30;;;;;;5000568;28;20248;-79
2021/08/05 14:25:32;;;;;;;2.83;2.30;;;31.20;67.90;;;;;;4996333;28;20628;-78
2021/08/05 14:27:58;;;;;;;2.20;2.00;;;30.80;68.60;;;;;;4990584;28;20197;-78
2021/08/05 14:30:23;;;;;;;2.47;1.80;;;30.70;69.30;;;;;;4992706;28;20252;-80
2021/08/05 14:32:49;;;;;;;2.73;2.10;;;31.40;68.30;;;;;;4990554;28;20216;-79
2021/08/05 14:35:14;;;;;;;3.07;1.60;;;32.30;68.10;;;;;;4990006;28;20216;-79
2021/08/05 14:37:40;;;;;;;2.37;1.67;;;32.20;65.20;;;;;;4984978;28;20220;-80
2021/08/05 14:40:07;;;;;;;1.63;1.50;;;32.30;65.70;;;;;;4990624;28;20189;-79
2021/08/05 14:42:32;;;;;;;2.13;1.92;;;32.70;64.70;;;;;;4971373;28;20182;-82
2021/08/05 14:44:58;;;;;;;2.40;1.60;;;32.80;64.40;;;;;;5000688;28;20189;-83
2021/08/05 14:47:24;;;;;;;2.10;1.90;;;32.10;65.40;;;;;;4994955;28;20174;-79
2021/08/05 14:49:50;;;;;;;3.23;1.90;;;31.40;66.70;;;;;;4990904;28;20268;-80
2021/08/05 14:52:16;;;;;;;2.10;1.50;;;32.10;66.40;;;;;;4996618;28;20166;-81
2021/08/05 14:54:43;;;;;;;2.58;1.88;;;33.30;64.70;;;;;;4996652;28;20200;-79
2021/08/05 14:57:09;;;;;;;2.38;1.92;;;34.10;63.80;;;;;;5000902;28;20181;-78
2021/08/05 14:59:34;;;;;;;2.55;1.80;;;34.40;63.30;;;;;;4999760;28;20292;-79
2021/08/05 15:02:00;;;;;;;2.75;1.83;;;35.20;62.90;;;;;;4963228;28;20607;-79
2021/08/05 15:04:26;;;;;;;2.33;1.70;;;35.90;60.80;;;;;;4993178;28;20178;-80
2021/08/05 15:06:51;;;;;;;1.77;1.67;;;35.70;60.50;;;;;;4995556;28;20211;-79
2021/08/05 15:09:18;;;;;;;1.88;1.75;;;35.60;59.70;;;;;;4999769;28;20196;-78
2021/08/05 15:11:44;;;;;;;1.83;1.73;;;34.30;61.50;;;;;;4991331;28;20200;-79
2021/08/05 15:14:12;;;;;;;3.53;2.22;;;33.40;62.10;;;;;;5009897;28;20185;-82
2021/08/05 15:16:39;;;;;;;2.25;1.88;;;32.90;64.00;;;;;;5017661;28;20235;-78
2021/08/05 15:19:05;;;;;;;2.93;1.40;;;32.20;63.70;;;;;;5019331;28;20219;-80
2021/08/05 15:21:31;;;;;;;1.87;1.60;;;31.30;64.50;;;;;;5004252;28;20190;-78
2021/08/05 15:23:57;;;;;;;2.87;2.00;;;30.70;65.70;;;;;;4996888;28;20182;-83
2021/08/05 15:26:24;;;;;;;2.93;2.00;;;30.30;67.00;;;;;;5001863;28;20198;-80
2021/08/05 15:28:49;;;;;;;3.13;1.60;;;30.80;67.40;;;;;;4998094;28;20232;-83
2021/08/05 15:31:15;;;;;;;5.33;1.73;;;30.90;66.60;;;;;;4994383;28;20272;-82
2021/08/05 15:33:42;;;;;;;5.03;1.80;;;31.10;66.80;;;;;;4994799;28;20186;-81
2021/08/05 15:36:07;;;;;;;1.73;1.50;;;32.10;63.90;;;;;;4992083;28;20283;-79
2021/08/05 15:38:33;;;;;;;2.83;1.77;;;32.90;62.70;;;;;;4998747;28;20643;-79
2021/08/05 15:40:59;;;;;;;1.90;1.50;;;33.10;62.10;;;;;;4985407;28;20193;-79
2021/08/05 15:43:24;;;;;;;1.80;1.58;;;33.50;62.60;;;;;;4997563;28;20213;-80
2021/08/05 15:45:50;;;;;;;1.70;1.25;;;33.40;61.20;;;;;;4993971;28;20622;-84
2021/08/05 15:48:16;;;;;;;1.50;1.40;;;33.40;60.70;;;;;;4998235;28;20178;-86
2021/08/05 15:50:43;;;;;;;2.88;1.50;;;33.60;61.10;;;;;;4993157;28;20228;-80
2021/08/05 15:53:09;;;;;;;2.75;1.50;;;33.60;61.70;;;;;;4996333;28;20217;-79
2021/08/05 15:55:34;;;;;;;1.70;1.45;;;33.20;61.80;;;;;;4993312;28;20227;-82
2021/08/05 15:58:01;;;;;;;2.45;1.55;;;33.60;61.10;;;;;;5004139;28;20190;-83
2021/08/05 16:00:27;;;;;;;1.45;1.33;;;33.90;60.60;;;;;;4996688;28;20547;-84
2021/08/05 16:02:53;;;;;;;2.30;1.60;;;34.00;60.80;;;;;;4996913;28;20174;-81
2021/08/05 16:05:19;;;;;;;2.55;1.40;;;33.70;61.10;;;;;;4990797;28;20213;-80
2021/08/05 16:07:46;;;;;;;2.92;1.50;;;33.00;61.50;;;;;;4988728;28;20663;-78
2021/08/05 16:10:12;;;;;;;1.53;1.40;;;32.30;62.60;;;;;;4988950;28;20638;-81
2021/08/05 16:12:41;;;;;;;4.43;1.90;;;31.70;63.80;;;;;;4984590;28;20178;-79
2021/08/05 16:15:12;;;;;;;1.90;1.70;;;31.80;63.50;;;;;;4999420;28;20181;-81
2021/08/05 16:17:38;;;;;;;2.87;1.90;;;31.90;63.20;;;;;;4992702;28;20237;-82
2021/08/05 16:20:05;;;;;;;2.30;1.70;;;31.70;63.60;;;;;;4985909;28;20182;-79
2021/08/05 16:22:30;;;;;;;2.83;1.63;;;31.30;64.40;;;;;;4996491;28;20192;-79
2021/08/05 16:24:56;;;;;;;2.23;1.40;;;30.70;65.00;;;;;;4990752;28;20215;-78
2021/08/05 16:27:21;;;;;;;1.67;1.27;;;30.20;65.70;;;;;;4989089;28;20182;-83
2021/08/05 16:29:47;;;;;;;1.60;1.50;;;29.60;66.70;;;;;;4993818;28;20276;-84
2021/08/05 16:32:13;;;;;;;2.00;1.57;;;29.20;67.40;;;;;;4993608;28;20182;-81
2021/08/05 16:34:38;;;;;;;1.60;1.30;;;29.10;67.60;;;;;;4989741;28;20698;-80
2021/08/05 16:37:04;;;;;;;3.07;1.67;;;29.20;68.30;;;;;;4995573;28;20181;-82
2021/08/05 16:39:29;;;;;;;2.53;1.80;;;28.80;68.90;;;;;;4982325;28;20536;-80
2021/08/05 16:41:55;;;;;;;1.73;1.63;;;28.80;69.50;;;;;;4990266;28;20185;-81
2021/08/05 16:44:20;;;;;;;2.00;1.67;;;29.00;69.50;;;;;;4985655;28;20261;-78
2021/08/05 16:46:47;;;;;;;2.00;1.40;;;29.10;68.70;;;;;;4994816;28;20256;-80
2021/08/05 16:49:17;;;;;;;3.17;1.80;;;29.10;69.10;;;;;;4988829;28;20575;-78
2021/08/05 16:51:43;;;;;;;1.53;1.27;;;29.20;68.40;;;;;;4981205;28;20547;-80
2021/08/05 16:54:09;;;;;;;2.17;1.50;;;28.90;68.20;;;;;;4985150;28;20256;-78
2021/08/05 16:56:36;;;;;;;2.10;1.60;;;28.50;68.90;;;;;;4991933;28;20665;-78
2021/08/05 16:59:02;;;;;;;3.03;1.33;;;28.20;69.40;;;;;;4994058;28;20213;-78
2021/08/05 17:01:29;;;;;;;2.80;1.43;;;27.90;70.00;;;;;;4991725;28;20178;-81
2021/08/05 17:03:55;;;;;;;3.57;1.63;;;28.10;69.60;;;;;;4994234;28;20589;-78
2021/08/05 17:06:21;;;;;;;1.40;1.23;;;28.40;70.00;;;;;;4992767;28;20271;-79
2021/08/05 17:08:48;;;;;;;1.50;1.40;;;29.00;68.60;;;;;;4989229;28;20619;-79
2021/08/05 17:11:15;;;;;;;2.57;1.70;;;29.30;67.70;;;;;;4997044;28;20232;-80
2021/08/05 17:13:41;;;;;;;3.30;1.47;;;29.70;67.70;;;;;;4993382;28;20273;-79
2021/08/05 17:16:07;;;;;;;1.93;1.30;;;30.00;67.20;;;;;;4996742;28;20710;-81
2021/08/05 17:18:33;;;;;;;2.67;1.70;;;30.10;66.90;;;;;;4994246;28;20174;-78
2021/08/05 17:20:59;;;;;;;1.93;1.63;;;30.20;67.20;;;;;;4993492;28;20221;-79
2021/08/05 17:23:25;;;;;;;2.30;1.53;;;30.30;67.00;;;;;;4996059;28;20216;-78
2021/08/05 17:25:51;;;;;;;1.80;1.60;;;30.40;66.50;;;;;;4982603;28;20770;-79
2021/08/05 17:28:17;;;;;;;2.23;1.43;;;30.30;66.60;;;;;;4990706;28;20277;-81
2021/08/05 17:30:46;;;;;;;2.30;1.80;;;30.00;66.10;;;;;;4986894;28;20378;-80
2021/08/05 17:33:12;;;;;;;1.73;1.60;;;29.90;66.30;;;;;;4996042;28;20181;-78
2021/08/05 17:35:37;;;;;;;1.83;1.50;;;29.60;67.00;;;;;;4991607;28;20197;-82
2021/08/05 17:38:03;;;;;;;2.83;2.07;;;29.20;67.20;;;;;;4986081;28;20189;-82
2021/08/05 17:40:29;;;;;;;2.37;1.60;;;28.90;67.70;;;;;;4989162;28;20288;-84
2021/08/05 17:42:54;;;;;;;2.83;1.87;;;28.80;68.70;;;;;;4989217;28;20191;-82
2021/08/05 17:45:20;;;;;;;4.37;2.40;;;29.00;68.60;;;;;;4996117;28;20598;-85
2021/08/05 17:47:45;;;;;;;3.90;2.07;;;28.90;69.10;;;;;;4996823;28;20254;-81
2021/08/05 17:50:13;;;;;;;3.10;2.30;;;28.70;68.80;;;;;;4992612;28;20228;-78
2021/08/05 17:52:39;;;;;;;2.17;1.63;;;28.20;69.80;;;;;;4988489;28;20222;-81
2021/08/05 17:55:05;;;;;;;3.90;1.80;;;27.90;70.50;;;;;;4989054;28;20184;-80
2021/08/05 17:57:31;;;;;;;1.97;1.77;;;27.50;71.50;;;;;;4987229;28;20183;-78
2021/08/05 17:59:56;;;;;;;2.97;1.83;;;27.20;71.90;;;;;;4987008;28;20247;-78
2021/08/05 18:02:22;;;;;;;2.63;1.90;;;26.80;73.10;;;;;;4984752;28;20178;-78
2021/08/05 18:04:47;;;;;;;2.73;1.70;;;26.50;74.10;;;;;;4992877;28;20650;-79
2021/08/05 18:07:13;;;;;;;3.37;2.00;;;26.50;74.60;;;;;;4987474;28;20682;-77
2021/08/05 18:09:41;;;;;;;3.73;1.90;;;26.60;74.40;;;;;;4990028;28;20217;-78
2021/08/05 18:12:06;;;;;;;2.63;1.80;;;26.70;74.40;;;;;;4987419;28;20189;-78
2021/08/05 18:14:32;;;;;;;2.73;1.90;;;27.00;74.00;;;;;;4993656;28;20194;-80
2021/08/05 18:16:58;;;;;;;3.43;1.83;;;26.80;73.70;;;;;;4996417;28;20181;-78
2021/08/05 18:19:23;;;;;;;4.07;1.90;;;26.70;74.60;;;;;;4990470;28;20594;-78
2021/08/05 18:21:49;;;;;;;2.83;1.43;;;26.60;74.30;;;;;;4997436;28;20709;-82
2021/08/05 18:24:15;;;;;;;2.23;1.53;;;26.30;74.80;;;;;;4992983;28;20192;-80
2021/08/05 18:26:41;;;;;;;1.83;1.43;;;26.10;75.10;;;;;;4987090;28;20267;-80
2021/08/05 18:29:08;;;;;;;3.03;1.57;;;26.10;75.10;;;;;;4987118;28;20193;-79
2021/08/05 18:31:34;;;;;;;2.50;1.97;;;25.90;75.60;;;;;;4993140;28;20204;-78
2021/08/05 18:34:00;;;;;;;2.23;1.57;;;25.90;75.40;;;;;;4993083;28;20186;-77
2021/08/05 18:36:25;;;;;;;2.70;1.87;;;25.70;75.90;;;;;;4996119;28;20233;-79
2021/08/05 18:38:51;;;;;;;1.90;1.70;;;25.70;75.70;;;;;;4998827;28;20190;-78
2021/08/05 18:41:16;;;;;;;4.27;2.10;;;25.70;75.90;;;;;;4989258;28;20182;-78
2021/08/05 18:43:42;;;;;;;3.10;1.90;;;25.70;75.70;;;;;;4979757;28;20248;-78
2021/08/05 18:46:08;;;;;;;2.97;1.93;;;25.60;76.20;;;;;;4988744;28;20193;-78
2021/08/05 18:48:34;;;;;;;1.90;1.70;;;25.40;76.30;;;;;;4991444;28;20182;-78
2021/08/05 18:51:00;;;;;;;3.13;1.97;;;25.40;77.00;;;;;;4985055;28;20247;-78
2021/08/05 18:53:25;;;;;;;2.40;2.00;;;25.50;77.10;;;;;;4990359;28;20190;-78
2021/08/05 18:55:51;;;;;;;2.53;1.83;;;25.40;77.00;;;;;;4990917;28;20605;-81
2021/08/05 18:58:16;;;;;;;3.10;1.80;;;25.40;77.60;;;;;;4985712;28;20186;-82
2021/08/05 19:00:42;;;;;;;2.83;1.77;;;25.40;77.70;;;;;;4993387;28;20196;-84
2021/08/05 19:03:08;;;;;;;2.30;1.80;;;25.60;77.80;;;;;;4986538;28;20244;-84
2021/08/05 19:05:35;;;;;;;3.73;1.87;;;25.50;78.20;;;;;;4989678;28;20726;-82
2021/08/05 19:08:01;;;;;;;3.17;2.17;;;25.30;78.40;;;;;;4990180;28;20207;-82
2021/08/05 19:10:26;;;;;;;2.83;2.10;;;25.10;79.10;;;;;;4988655;28;20206;-82
2021/08/05 19:12:55;;;;;;;2.47;1.80;;;25.10;79.20;;;;;;4991428;28;20546;-82
2021/08/05 19:15:21;;;;;;;2.87;2.30;;;25.00;79.50;;;;;;4990363;28;20182;-83
2021/08/05 19:17:46;;;;;;;3.07;2.23;;;25.00;79.70;;;;;;4989711;28;20550;-83
2021/08/05 19:20:13;;;;;;;2.80;2.47;;;25.00;79.50;;;;;;4989756;28;20187;-82
2021/08/05 19:22:39;;;;;;;4.33;2.50;;;25.10;78.90;;;;;;4990412;28;20193;-82
2021/08/05 19:25:06;;;;;;;7.50;2.30;;;25.10;78.90;;;;;;4989956;28;20224;-82
2021/08/05 19:27:31;;;;;;;3.10;2.40;;;25.20;78.90;;;;;;4990604;28;20277;-83
2021/08/05 19:29:57;;;;;;;3.73;2.43;;;25.30;78.60;;;;;;4987015;28;20371;-82
2021/08/05 19:32:23;;;;;;;2.23;2.03;;;25.30;78.90;;;;;;4988552;28;20727;-83
2021/08/05 19:34:48;;;;;;;2.53;2.20;;;25.20;79.30;;;;;;4985146;28;20627;-83
2021/08/05 19:37:14;;;;;;;2.73;2.20;;;25.20;79.50;;;;;;4984333;28;20193;-82
2021/08/05 19:39:40;;;;;;;4.10;2.30;;;25.20;79.40;;;;;;4988678;28;20542;-82
2021/08/05 19:42:05;;;;;;;5.70;2.70;;;25.30;80.30;;;;;;4992159;28;20674;-82
2021/08/05 19:44:31;;;;;;;3.73;2.00;;;25.20;80.40;;;;;;4990153;28;20186;-83
2021/08/05 19:46:56;;;;;;;6.03;2.47;;;25.20;81.10;;;;;;4991869;28;20238;-82
2021/08/05 19:49:23;;;;;;;4.97;2.30;;;25.10;81.40;;;;;;4979564;28;20745;-82
2021/08/05 19:51:48;;;;;;;3.47;2.43;;;25.00;81.60;;;;;;4981092;28;20196;-82
2021/08/05 19:54:14;;;;;;;3.23;2.53;;;25.10;81.50;;;;;;4984922;28;20643;-82
2021/08/05 19:56:39;;;;;;;3.40;2.40;;;25.10;81.60;;;;;;4984338;28;20306;-83
2021/08/05 19:59:05;;;;;;;3.77;2.23;;;25.10;82.20;;;;;;4993282;28;20187;-83
2021/08/05 20:01:32;;;;;;;4.37;2.77;;;25.20;80.60;;;;;;4993487;28;20190;-83
2021/08/05 20:03:58;;;;;;;2.73;2.30;;;25.20;80.40;;;;;;4993836;28;20197;-83
2021/08/05 20:06:24;;;;;;;3.53;2.50;;;25.20;79.90;;;;;;4994540;28;20208;-84